Time,TemperatureF,DewpointF,PressureIn,WindDirection,WindDirectionDegrees,WindSpeedMPH,WindSpeedGustMPH,Humidity,HourlyPrecipIn,Conditions,Clouds,dailyrainin,SoftwareType,DateUTC
2013-01-05 00:01:00,21.3,17.8,30.28,SSW,202,7.1,7.1,86,0.00,,,0.00,VWS V14.01,2013-01-05 06:01:00,
2013-01-05 00:06:00,21.3,17.8,30.28,SSW,202,2.9,2.9,86,0.00,,,0.00,VWS V14.01,2013-01-05 06:06:00,
2013-01-05 00:11:00,21.7,18.2,30.27,SW,225,2.6,2.6,86,0.00,,,0.00,VWS V14.01,2013-01-05 06:11:00,
2013-01-05 00:16:00,21.9,18.4,30.27,SW,225,0.6,0.6,86,0.00,,,0.00,VWS V14.01,2013-01-05 06:16:00,
2013-01-05 00:21:00,21.5,18.0,30.27,SW,225,0.6,0.6,86,0.00,,,0.00,VWS V14.01,2013-01-05 06:21:00,
2013-01-05 00:25:00,21.3,17.8,30.27,SSW,202,0.0,0.0,86,0.00,,,0.00,VWS V14.01,2013-01-05 06:25:00,
2013-01-05 00:30:00,21.0,17.5,30.27,SW,225,1.7,1.7,86,0.00,,,0.00,VWS V14.01,2013-01-05 06:30:00,
2013-01-05 00:35:00,21.0,17.5,30.27,WSW,248,0.0,0.0,86,0.00,,,0.00,VWS V14.01,2013-01-05 06:35:00,
2013-01-05 00:40:00,20.8,17.3,30.27,West,270,0.0,0.0,86,0.00,,,0.00,VWS V14.01,2013-01-05 06:40:00,
2013-01-05 00:45:00,20.3,16.8,30.27,WSW,248,0.0,0.0,86,0.00,,,0.00,VWS V14.01,2013-01-05 06:45:00,
2013-01-05 00:50:00,19.9,16.4,30.27,SW,225,0.6,0.6,86,0.00,,,0.00,VWS V14.01,2013-01-05 06:50:00,
2013-01-05 00:55:00,19.7,16.2,30.27,SW,225,0.0,0.0,86,0.00,,,0.00,VWS V14.01,2013-01-05 06:55:00,
2013-01-05 00:58:00,19.8,16.3,30.27,SW,225,0.0,2.7,86,0.00,,,99.99,VWS V14.01,2013-01-05 06:58:00,
2013-01-05 01:00:00,19.5,16.0,30.27,SW,225,0.0,0.0,86,0.00,,,0.00,VWS V14.01,2013-01-05 07:00:00,
2013-01-05 01:05:00,19.5,16.0,30.26,WSW,248,0.0,0.0,86,0.00,,,0.00,VWS V14.01,2013-01-05 07:05:00,
2013-01-05 01:10:00,19.9,16.4,30.27,SW,225,0.4,0.4,86,0.00,,,0.00,VWS V14.01,2013-01-05 07:10:00,
2013-01-05 01:15:00,19.9,16.7,30.26,SW,225,0.0,0.0,87,0.00,,,0.00,VWS V14.01,2013-01-05 07:15:00,
2013-01-05 01:20:00,19.5,16.3,30.27,SW,225,0.0,0.0,87,0.00,,,0.00,VWS V14.01,2013-01-05 07:20:00,
2013-01-05 01:25:00,19.5,16.3,30.26,SW,225,0.0,0.0,87,0.00,,,0.00,VWS V14.01,2013-01-05 07:25:00,
2013-01-05 01:30:00,19.5,16.3,30.27,SW,225,0.0,0.0,87,0.00,,,0.00,VWS V14.01,2013-01-05 07:30:00,
2013-01-05 01:35:00,19.5,16.3,30.27,SW,225,0.0,0.0,87,0.00,,,0.00,VWS V14.01,2013-01-05 07:35:00,
2013-01-05 01:40:00,19.5,16.3,30.27,SW,225,0.0,0.0,87,0.00,,,0.00,VWS V14.01,2013-01-05 07:40:00,
2013-01-05 01:45:00,19.7,16.5,30.27,SW,225,1.5,1.5,87,0.00,,,0.00,VWS V14.01,2013-01-05 07:45:00,
2013-01-05 01:50:00,19.9,16.7,30.27,SSW,202,2.0,2.0,87,0.00,,,0.00,VWS V14.01,2013-01-05 07:50:00,
2013-01-05 01:55:00,19.9,16.7,30.27,SSW,202,2.2,2.2,87,0.00,,,0.00,VWS V14.01,2013-01-05 07:55:00,
2013-01-05 01:58:00,19.9,16.7,30.27,SSW,202,3.4,3.4,87,0.00,,,99.99,VWS V14.01,2013-01-05 07:58:00,
2013-01-05 02:00:00,19.9,16.7,30.27,SSW,202,1.5,1.5,87,0.00,,,0.00,VWS V14.01,2013-01-05 08:00:00,
2013-01-05 02:05:00,19.9,16.7,30.26,SSW,202,0.0,0.0,87,0.00,,,0.00,VWS V14.01,2013-01-05 08:05:00,
2013-01-05 02:10:00,19.9,16.7,30.26,SSW,202,0.0,0.0,87,0.00,,,0.00,VWS V14.01,2013-01-05 08:10:00,
2013-01-05 02:15:00,20.1,16.9,30.27,SW,225,2.6,2.6,87,0.00,,,0.00,VWS V14.01,2013-01-05 08:15:00,
2013-01-05 02:20:00,20.1,16.9,30.27,SSW,202,5.8,5.8,87,0.00,,,0.00,VWS V14.01,2013-01-05 08:20:00,
2013-01-05 02:25:00,19.9,16.7,30.27,SSW,202,5.1,5.1,87,0.00,,,0.00,VWS V14.01,2013-01-05 08:25:00,
2013-01-05 02:30:00,19.9,16.7,30.27,SSW,202,6.9,6.9,87,0.00,,,0.00,VWS V14.01,2013-01-05 08:30:00,
2013-01-05 02:35:00,19.9,16.7,30.27,SSW,202,5.8,5.8,87,0.00,,,0.00,VWS V14.01,2013-01-05 08:35:00,
2013-01-05 02:40:00,19.9,16.7,30.27,SSW,202,2.6,2.6,87,0.00,,,0.00,VWS V14.01,2013-01-05 08:40:00,
2013-01-05 02:45:00,20.3,17.1,30.27,SSW,202,2.2,2.2,87,0.00,,,0.00,VWS V14.01,2013-01-05 08:45:00,
2013-01-05 02:50:00,20.4,17.4,30.27,SSW,202,2.0,2.0,88,0.00,,,0.00,VWS V14.01,2013-01-05 08:50:00,
2013-01-05 02:55:00,20.8,17.8,30.27,SSW,202,3.1,3.1,88,0.00,,,0.00,VWS V14.01,2013-01-05 08:55:00,
2013-01-05 02:58:00,20.8,17.9,30.27,SSW,202,1.6,3.4,88,0.00,,,99.99,VWS V14.01,2013-01-05 08:58:00,
2013-01-05 03:00:00,20.8,17.8,30.27,SSW,202,1.3,1.3,88,0.00,,,0.00,VWS V14.01,2013-01-05 09:00:00,
2013-01-05 03:05:00,20.8,17.8,30.26,SSW,202,2.2,2.2,88,0.00,,,0.00,VWS V14.01,2013-01-05 09:05:00,
2013-01-05 03:10:00,20.4,17.2,30.26,SSW,202,0.6,0.6,87,0.00,,,0.00,VWS V14.01,2013-01-05 09:10:00,
2013-01-05 03:15:00,20.4,17.2,30.26,SSW,202,3.3,3.3,87,0.00,,,0.00,VWS V14.01,2013-01-05 09:15:00,
2013-01-05 03:20:00,20.3,17.1,30.26,SSW,202,2.4,2.4,87,0.00,,,0.00,VWS V14.01,2013-01-05 09:20:00,
2013-01-05 03:25:00,20.4,17.2,30.25,SSW,202,2.6,2.6,87,0.00,,,0.00,VWS V14.01,2013-01-05 09:25:00,
2013-01-05 03:30:00,20.3,17.1,30.25,SSW,202,4.2,4.2,87,0.00,,,0.00,VWS V14.01,2013-01-05 09:30:00,
2013-01-05 03:35:00,19.9,16.7,30.25,SSW,202,1.3,1.3,87,0.00,,,0.00,VWS V14.01,2013-01-05 09:35:00,
2013-01-05 03:40:00,20.1,16.9,30.25,SSW,202,2.4,2.4,87,0.00,,,0.00,VWS V14.01,2013-01-05 09:40:00,
2013-01-05 03:45:00,20.3,17.1,30.25,SSW,202,1.7,1.7,87,0.00,,,0.00,VWS V14.01,2013-01-05 09:45:00,
2013-01-05 03:50:00,20.8,17.8,30.25,South,180,0.0,0.0,88,0.00,,,0.00,VWS V14.01,2013-01-05 09:50:00,
2013-01-05 03:55:00,20.4,17.4,30.25,South,180,2.0,2.0,88,0.00,,,0.00,VWS V14.01,2013-01-05 09:55:00,
2013-01-05 03:58:00,20.7,17.7,30.25,South,180,1.1,1.6,88,0.00,,,99.99,VWS V14.01,2013-01-05 09:58:00,
2013-01-05 04:00:00,20.4,17.4,30.24,South,180,0.0,0.0,88,0.00,,,0.00,VWS V14.01,2013-01-05 10:00:00,
2013-01-05 04:05:00,20.3,17.1,30.23,South,180,0.8,0.8,87,0.00,,,0.00,VWS V14.01,2013-01-05 10:05:00,
2013-01-05 04:10:00,20.8,17.8,30.23,South,180,0.0,0.0,88,0.00,,,0.00,VWS V14.01,2013-01-05 10:10:00,
2013-01-05 04:15:00,20.8,17.8,30.24,South,180,0.0,0.0,88,0.00,,,0.00,VWS V14.01,2013-01-05 10:15:00,
2013-01-05 04:20:00,20.4,17.4,30.24,South,180,4.4,4.4,88,0.00,,,0.00,VWS V14.01,2013-01-05 10:20:00,
2013-01-05 04:25:00,20.3,17.1,30.24,South,180,2.2,2.2,87,0.00,,,0.00,VWS V14.01,2013-01-05 10:25:00,
2013-01-05 04:30:00,20.1,16.9,30.24,South,180,1.5,1.5,87,0.00,,,0.00,VWS V14.01,2013-01-05 10:30:00,
2013-01-05 04:35:00,20.8,17.8,30.24,South,180,1.5,1.5,88,0.00,,,0.00,VWS V14.01,2013-01-05 10:35:00,
2013-01-05 04:40:00,21.0,18.0,30.24,South,180,0.0,0.0,88,0.00,,,0.00,VWS V14.01,2013-01-05 10:40:00,
2013-01-05 04:45:00,20.8,17.8,30.24,South,180,2.2,2.2,88,0.00,,,0.00,VWS V14.01,2013-01-05 10:45:00,
2013-01-05 04:50:00,20.8,17.8,30.24,South,180,0.8,0.8,88,0.00,,,0.00,VWS V14.01,2013-01-05 10:50:00,
2013-01-05 04:55:00,20.8,17.8,30.24,South,180,1.5,1.5,88,0.00,,,0.00,VWS V14.01,2013-01-05 10:55:00,
2013-01-05 04:58:00,20.8,17.9,30.24,South,180,0.0,1.1,88,0.00,,,99.99,VWS V14.01,2013-01-05 10:58:00,
2013-01-05 05:00:00,20.8,17.8,30.23,SSW,202,0.0,0.0,88,0.00,,,0.00,VWS V14.01,2013-01-05 11:00:00,
2013-01-05 05:05:00,20.6,17.6,30.24,South,180,2.6,2.6,88,0.00,,,0.00,VWS V14.01,2013-01-05 11:05:00,
2013-01-05 05:10:00,20.4,17.4,30.24,South,180,4.4,4.4,88,0.00,,,0.00,VWS V14.01,2013-01-05 11:10:00,
2013-01-05 05:15:00,20.4,17.2,30.23,South,180,0.0,0.0,87,0.00,,,0.00,VWS V14.01,2013-01-05 11:15:00,
2013-01-05 05:20:00,20.3,17.3,30.23,South,180,0.0,0.0,88,0.00,,,0.00,VWS V14.01,2013-01-05 11:20:00,
2013-01-05 05:25:00,20.4,17.4,30.23,South,180,0.0,0.0,88,0.00,,,0.00,VWS V14.01,2013-01-05 11:25:00,
2013-01-05 05:30:00,20.4,17.4,30.23,South,180,0.0,0.0,88,0.00,,,0.00,VWS V14.01,2013-01-05 11:30:00,
2013-01-05 05:35:00,20.8,17.8,30.23,South,180,0.0,0.0,88,0.00,,,0.00,VWS V14.01,2013-01-05 11:35:00,
2013-01-05 05:40:00,20.8,17.8,30.22,South,180,0.0,0.0,88,0.00,,,0.00,VWS V14.01,2013-01-05 11:40:00,
2013-01-05 05:45:00,20.8,17.8,30.22,South,180,0.0,0.0,88,0.00,,,0.00,VWS V14.01,2013-01-05 11:45:00,
2013-01-05 05:50:00,19.9,16.7,30.22,South,180,0.0,0.0,87,0.00,,,0.00,VWS V14.01,2013-01-05 11:50:00,
2013-01-05 05:55:00,20.1,17.1,30.22,SSE,158,0.0,0.0,88,0.00,,,0.00,VWS V14.01,2013-01-05 11:55:00,
2013-01-05 05:58:00,20.3,17.3,30.22,South,180,2.0,2.0,88,0.00,,,99.99,VWS V14.01,2013-01-05 11:58:00,
2013-01-05 06:00:00,20.3,17.3,30.22,South,180,0.0,0.0,88,0.00,,,0.00,VWS V14.01,2013-01-05 12:00:00,
2013-01-05 06:05:00,20.8,17.8,30.22,South,180,0.0,0.0,88,0.00,,,0.00,VWS V14.01,2013-01-05 12:05:00,
2013-01-05 06:10:00,20.8,17.8,30.21,South,180,1.7,1.7,88,0.00,,,0.00,VWS V14.01,2013-01-05 12:10:00,
2013-01-05 06:15:00,20.8,17.8,30.21,South,180,0.0,0.0,88,0.00,,,0.00,VWS V14.01,2013-01-05 12:15:00,
2013-01-05 06:20:00,20.4,17.4,30.22,South,180,0.0,0.0,88,0.00,,,0.00,VWS V14.01,2013-01-05 12:20:00,
2013-01-05 06:25:00,20.3,17.3,30.21,South,180,0.0,0.0,88,0.00,,,0.00,VWS V14.01,2013-01-05 12:25:00,
2013-01-05 06:30:00,20.1,17.1,30.21,South,180,0.0,0.0,88,0.00,,,0.00,VWS V14.01,2013-01-05 12:30:00,
2013-01-05 06:35:00,19.9,16.9,30.21,South,180,0.0,0.0,88,0.00,,,0.00,VWS V14.01,2013-01-05 12:35:00,
2013-01-05 06:40:00,19.9,16.9,30.21,South,180,0.0,0.0,88,0.00,,,0.00,VWS V14.01,2013-01-05 12:40:00,
2013-01-05 06:45:00,19.9,16.9,30.20,South,180,0.0,0.0,88,0.00,,,0.00,VWS V14.01,2013-01-05 12:45:00,
2013-01-05 06:50:00,19.5,16.5,30.20,SSE,158,0.0,0.0,88,0.00,,,0.00,VWS V14.01,2013-01-05 12:50:00,
2013-01-05 06:55:00,19.9,16.9,30.20,SE,135,1.5,1.5,88,0.00,,,0.00,VWS V14.01,2013-01-05 12:55:00,
2013-01-05 06:58:00,20.7,17.7,30.21,SE,135,2.9,2.9,88,0.00,,,99.99,VWS V14.01,2013-01-05 12:58:00,
2013-01-05 07:00:00,21.0,18.0,30.20,SE,135,0.0,0.0,88,0.00,,,0.00,VWS V14.01,2013-01-05 13:00:00,
2013-01-05 07:05:00,21.0,18.0,30.20,SE,135,3.5,3.5,88,0.00,,,0.00,VWS V14.01,2013-01-05 13:05:00,
2013-01-05 07:10:00,20.3,17.1,30.20,SE,135,1.3,1.3,87,0.00,,,0.00,VWS V14.01,2013-01-05 13:10:00,
2013-01-05 07:15:00,20.1,16.9,30.20,SE,135,1.7,1.7,87,0.00,,,0.00,VWS V14.01,2013-01-05 13:15:00,
2013-01-05 07:20:00,19.5,16.5,30.20,SSE,158,0.0,0.0,88,0.00,,,0.00,VWS V14.01,2013-01-05 13:20:00,
2013-01-05 07:25:00,19.0,16.0,30.20,SE,135,3.8,3.8,88,0.00,,,0.00,VWS V14.01,2013-01-05 13:25:00,
2013-01-05 07:30:00,19.0,16.0,30.19,SE,135,0.0,0.0,88,0.00,,,0.00,VWS V14.01,2013-01-05 13:30:00,
2013-01-05 07:35:00,19.5,16.5,30.20,SE,135,0.0,0.0,88,0.00,,,0.00,VWS V14.01,2013-01-05 13:35:00,
2013-01-05 07:40:00,20.1,17.1,30.20,ESE,112,0.0,0.0,88,0.00,,,0.00,VWS V14.01,2013-01-05 13:40:00,
2013-01-05 07:45:00,21.0,18.0,30.20,South,180,1.5,1.5,88,0.00,,,0.00,VWS V14.01,2013-01-05 13:45:00,
2013-01-05 07:50:00,21.7,18.2,30.20,South,180,1.1,1.1,86,0.00,,,0.00,VWS V14.01,2013-01-05 13:50:00,
2013-01-05 07:55:00,23.1,19.5,30.20,South,180,0.0,0.0,86,0.00,,,0.00,VWS V14.01,2013-01-05 13:55:00,
2013-01-05 07:58:00,23.5,19.7,30.21,South,180,1.3,2.9,85,0.00,,,99.99,VWS V14.01,2013-01-05 13:58:00,
2013-01-05 08:00:00,23.9,20.1,30.20,South,180,4.2,4.2,85,0.00,,,0.00,VWS V14.01,2013-01-05 14:00:00,
2013-01-05 08:05:00,24.0,19.6,30.20,South,180,0.0,0.0,83,0.00,,,0.00,VWS V14.01,2013-01-05 14:05:00,
2013-01-05 08:10:00,24.4,20.0,30.20,South,180,5.5,5.5,83,0.00,,,0.00,VWS V14.01,2013-01-05 14:10:00,
2013-01-05 08:15:00,24.4,19.4,30.21,South,180,4.9,4.9,81,0.00,,,0.00,VWS V14.01,2013-01-05 14:15:00,
2013-01-05 08:20:00,24.2,19.2,30.21,South,180,5.8,5.8,81,0.00,,,0.00,VWS V14.01,2013-01-05 14:20:00,
2013-01-05 08:25:00,24.6,19.3,30.21,South,180,4.4,4.4,80,0.00,,,0.00,VWS V14.01,2013-01-05 14:25:00,
2013-01-05 08:30:00,25.8,20.2,30.21,South,180,2.0,2.0,79,0.00,,,0.00,VWS V14.01,2013-01-05 14:30:00,
2013-01-05 08:35:00,26.2,20.6,30.21,South,180,2.0,2.0,79,0.00,,,0.00,VWS V14.01,2013-01-05 14:35:00,
2013-01-05 08:40:00,26.6,21.0,30.21,South,180,0.0,0.0,79,0.00,,,0.00,VWS V14.01,2013-01-05 14:40:00,
2013-01-05 08:45:00,31.1,24.1,30.22,South,180,2.9,2.9,75,0.00,,,0.00,VWS V14.01,2013-01-05 14:45:00,
2013-01-05 08:50:00,26.2,19.7,30.21,SSW,202,6.9,6.9,76,0.00,,,0.00,VWS V14.01,2013-01-05 14:50:00,
2013-01-05 08:55:00,23.5,18.0,30.21,SSW,202,8.7,8.7,79,0.00,,,0.00,VWS V14.01,2013-01-05 14:55:00,
2013-01-05 08:58:00,22.8,17.6,30.22,SSW,202,8.1,8.1,80,0.00,,,99.99,VWS V14.01,2013-01-05 14:58:00,
2013-01-05 09:00:00,22.8,17.9,30.21,SSW,202,8.2,8.2,81,0.00,,,0.00,VWS V14.01,2013-01-05 15:00:00,
2013-01-05 09:05:00,23.0,18.6,30.21,SSW,202,11.1,11.1,83,0.00,,,0.00,VWS V14.01,2013-01-05 15:05:00,
2013-01-05 09:10:00,25.1,20.4,30.21,SSW,202,8.5,8.5,82,0.00,,,0.00,VWS V14.01,2013-01-05 15:10:00,
2013-01-05 09:15:00,26.7,21.4,30.20,SSW,202,7.8,7.8,80,0.00,,,0.00,VWS V14.01,2013-01-05 15:15:00,
2013-01-05 09:20:00,28.5,22.5,30.21,SSW,202,8.5,8.5,78,0.00,,,0.00,VWS V14.01,2013-01-05 15:20:00,
2013-01-05 09:25:00,28.5,21.9,30.22,SW,225,4.0,4.0,76,0.00,,,0.00,VWS V14.01,2013-01-05 15:25:00,
2013-01-05 09:30:00,28.5,21.6,30.21,SSW,202,9.1,9.1,75,0.00,,,0.00,VWS V14.01,2013-01-05 15:30:00,
2013-01-05 09:35:00,29.4,22.5,30.21,SSW,202,4.4,4.4,75,0.00,,,0.00,VWS V14.01,2013-01-05 15:35:00,
2013-01-05 09:40:00,30.2,22.6,30.20,SSW,202,8.7,8.7,73,0.00,,,0.00,VWS V14.01,2013-01-05 15:40:00,
2013-01-05 09:45:00,30.5,22.9,30.20,SSW,202,5.1,5.1,73,0.00,,,0.00,VWS V14.01,2013-01-05 15:45:00,
2013-01-05 09:50:00,30.7,23.1,30.20,SW,225,4.2,4.2,73,0.00,,,0.00,VWS V14.01,2013-01-05 15:50:00,
2013-01-05 09:55:00,30.0,22.1,30.20,SSW,202,7.1,7.1,72,0.00,,,0.00,VWS V14.01,2013-01-05 15:55:00,
2013-01-05 09:58:00,29.1,21.6,30.20,SSW,202,7.6,8.1,73,0.00,,,99.99,VWS V14.01,2013-01-05 15:58:00,
2013-01-05 10:00:00,28.2,21.6,30.19,SSW,202,6.7,6.7,76,0.00,,,0.00,VWS V14.01,2013-01-05 16:00:00,
2013-01-05 10:05:00,27.1,20.9,30.19,South,180,7.3,7.3,77,0.00,,,0.00,VWS V14.01,2013-01-05 16:05:00,
2013-01-05 10:10:00,26.9,21.3,30.19,SSW,202,10.5,10.5,79,0.00,,,0.00,VWS V14.01,2013-01-05 16:10:00,
2013-01-05 10:15:00,26.7,21.1,30.20,SSW,202,11.4,11.4,79,0.00,,,0.00,VWS V14.01,2013-01-05 16:15:00,
2013-01-05 10:20:00,27.3,22.0,30.20,SSW,202,10.2,10.2,80,0.00,,,0.00,VWS V14.01,2013-01-05 16:20:00,
2013-01-05 10:25:00,27.6,22.2,30.20,SSW,202,10.0,10.0,80,0.00,,,0.00,VWS V14.01,2013-01-05 16:25:00,
2013-01-05 10:30:00,28.0,22.6,30.20,SW,225,4.9,4.9,80,0.00,,,0.00,VWS V14.01,2013-01-05 16:30:00,
2013-01-05 10:35:00,28.5,23.1,30.20,SSW,202,10.0,10.0,80,0.00,,,0.00,VWS V14.01,2013-01-05 16:35:00,
2013-01-05 10:40:00,29.3,23.9,30.19,SSW,202,11.1,11.1,80,0.00,,,0.00,VWS V14.01,2013-01-05 16:40:00,
2013-01-05 10:45:00,30.0,24.3,30.19,SSW,202,12.0,12.0,79,0.00,,,0.00,VWS V14.01,2013-01-05 16:45:00,
2013-01-05 10:50:00,31.1,25.0,30.19,SSW,202,0.6,0.6,78,0.00,,,0.00,VWS V14.01,2013-01-05 16:50:00,
2013-01-05 10:55:00,33.4,27.0,30.19,SSW,202,4.2,4.2,77,0.00,,,0.00,VWS V14.01,2013-01-05 16:55:00,
2013-01-05 10:58:00,34.3,26.6,30.19,SSW,202,9.8,9.8,73,0.00,,,99.99,VWS V14.01,2013-01-05 16:58:00,
2013-01-05 11:00:00,33.6,25.5,30.19,SSW,202,8.7,8.7,72,0.00,,,0.00,VWS V14.01,2013-01-05 17:00:00,
2013-01-05 11:05:00,33.2,25.5,30.18,SW,225,9.3,9.3,73,0.00,,,0.00,VWS V14.01,2013-01-05 17:05:00,
2013-01-05 11:10:00,34.3,26.6,30.18,SSW,202,6.0,6.0,73,0.00,,,0.00,VWS V14.01,2013-01-05 17:10:00,
2013-01-05 11:15:00,34.8,26.0,30.18,SSW,202,7.8,7.8,70,0.00,,,0.00,VWS V14.01,2013-01-05 17:15:00,
2013-01-05 11:20:00,34.3,25.9,30.17,SW,225,3.5,3.5,71,0.00,,,0.00,VWS V14.01,2013-01-05 17:20:00,
2013-01-05 11:25:00,33.6,25.2,30.17,West,270,0.0,0.0,71,0.00,,,0.00,VWS V14.01,2013-01-05 17:25:00,
2013-01-05 11:30:00,33.0,25.0,30.17,SW,225,1.7,1.7,72,0.00,,,0.00,VWS V14.01,2013-01-05 17:30:00,
2013-01-05 11:35:00,32.9,24.9,30.17,SSW,202,4.2,4.2,72,0.00,,,0.00,VWS V14.01,2013-01-05 17:35:00,
2013-01-05 11:40:00,32.7,25.0,30.16,SSW,202,8.0,8.0,73,0.00,,,0.00,VWS V14.01,2013-01-05 17:40:00,
2013-01-05 11:45:00,31.6,24.3,30.16,SSW,202,4.0,4.0,74,0.00,,,0.00,VWS V14.01,2013-01-05 17:45:00,
2013-01-05 11:50:00,32.0,25.0,30.16,SSW,202,3.8,3.8,75,0.00,,,0.00,VWS V14.01,2013-01-05 17:50:00,
2013-01-05 11:55:00,32.3,25.3,30.15,SSW,202,6.2,6.2,75,0.00,,,0.00,VWS V14.01,2013-01-05 17:55:00,
2013-01-05 11:58:00,32.9,26.2,30.15,SW,225,5.6,9.8,76,0.00,,,99.99,VWS V14.01,2013-01-05 17:58:00,
2013-01-05 12:00:00,32.9,25.9,30.14,SSW,202,7.8,7.8,75,0.00,,,0.00,VWS V14.01,2013-01-05 18:00:00,
2013-01-05 12:05:00,33.4,26.7,30.14,SSW,202,10.0,10.0,76,0.00,,,0.00,VWS V14.01,2013-01-05 18:05:00,
2013-01-05 12:10:00,33.8,27.0,30.14,SSW,202,9.6,9.6,76,0.00,,,0.00,VWS V14.01,2013-01-05 18:10:00,
2013-01-05 12:15:00,34.3,27.9,30.14,SSW,202,10.5,10.5,77,0.00,,,0.00,VWS V14.01,2013-01-05 18:15:00,
2013-01-05 12:20:00,34.8,28.6,30.13,SSW,202,16.3,16.3,78,0.00,,,0.00,VWS V14.01,2013-01-05 18:20:00,
2013-01-05 12:25:00,34.8,28.3,30.12,SSW,202,16.7,16.7,77,0.00,,,0.00,VWS V14.01,2013-01-05 18:25:00,
2013-01-05 12:30:00,35.4,29.2,30.12,SSW,202,14.7,14.7,78,0.00,,,0.00,VWS V14.01,2013-01-05 18:30:00,
2013-01-05 12:35:00,35.4,29.2,30.11,SSW,202,19.0,19.0,78,0.00,,,0.00,VWS V14.01,2013-01-05 18:35:00,
2013-01-05 12:40:00,35.4,29.2,30.11,SSW,202,13.1,13.1,78,0.00,,,0.00,VWS V14.01,2013-01-05 18:40:00,
2013-01-05 12:45:00,35.7,29.5,30.11,SSW,202,12.9,12.9,78,0.00,,,0.00,VWS V14.01,2013-01-05 18:45:00,
2013-01-05 12:50:00,35.4,29.5,30.10,SSW,202,18.7,18.7,79,0.00,,,0.00,VWS V14.01,2013-01-05 18:50:00,
2013-01-05 12:55:00,35.2,29.4,30.10,SSW,202,17.2,17.2,79,0.00,,,0.00,VWS V14.01,2013-01-05 18:55:00,
2013-01-05 12:58:00,35.2,29.7,30.10,WSW,248,17.9,17.9,80,0.00,,,99.99,VWS V14.01,2013-01-05 18:58:00,
2013-01-05 13:00:00,35.2,29.7,30.10,SSW,202,13.4,13.4,80,0.00,,,0.00,VWS V14.01,2013-01-05 19:00:00,
2013-01-05 13:05:00,35.4,29.5,30.09,SW,225,13.4,13.4,79,0.00,,,0.00,VWS V14.01,2013-01-05 19:05:00,
2013-01-05 13:10:00,35.7,30.1,30.09,SW,225,12.7,12.7,80,0.00,,,0.00,VWS V14.01,2013-01-05 19:10:00,
2013-01-05 13:15:00,35.7,30.1,30.09,South,180,12.9,12.9,80,0.00,,,0.00,VWS V14.01,2013-01-05 19:15:00,
2013-01-05 13:20:00,35.4,29.9,30.09,SSW,202,9.3,9.3,80,0.00,,,0.00,VWS V14.01,2013-01-05 19:20:00,
2013-01-05 13:25:00,35.4,30.2,30.09,SSW,202,6.4,6.4,81,0.00,,,0.00,VWS V14.01,2013-01-05 19:25:00,
2013-01-05 13:30:00,35.2,30.0,30.09,SSW,202,8.5,8.5,81,0.00,,,0.00,VWS V14.01,2013-01-05 19:30:00,
2013-01-05 13:35:00,35.4,30.2,30.08,SSW,202,9.3,9.3,81,0.00,,,0.00,VWS V14.01,2013-01-05 19:35:00,
2013-01-05 13:40:00,35.4,30.2,30.08,SW,225,9.1,9.1,81,0.00,,,0.00,VWS V14.01,2013-01-05 19:40:00,
2013-01-05 13:45:00,35.2,30.3,30.08,SSW,202,8.9,8.9,82,0.00,,,0.00,VWS V14.01,2013-01-05 19:45:00,
2013-01-05 13:50:00,35.2,30.3,30.07,SSW,202,14.5,14.5,82,0.00,,,0.00,VWS V14.01,2013-01-05 19:50:00,
2013-01-05 13:55:00,35.2,30.6,30.07,SSW,202,9.1,9.1,83,0.00,,,0.00,VWS V14.01,2013-01-05 19:55:00,
2013-01-05 13:58:00,35.2,30.6,30.07,SSW,202,9.2,17.9,83,0.00,,,99.99,VWS V14.01,2013-01-05 19:58:00,
2013-01-05 14:00:00,35.2,30.6,30.07,SSW,202,11.6,11.6,83,0.00,,,0.00,VWS V14.01,2013-01-05 20:00:00,
2013-01-05 14:05:00,35.2,30.9,30.07,SSW,202,9.3,9.3,84,0.00,,,0.00,VWS V14.01,2013-01-05 20:05:00,
2013-01-05 14:10:00,35.2,30.9,30.07,SW,225,8.7,8.7,84,0.00,,,0.00,VWS V14.01,2013-01-05 20:10:00,
2013-01-05 14:15:00,35.4,31.4,30.06,SSW,202,17.0,17.0,85,0.00,,,0.00,VWS V14.01,2013-01-05 20:15:00,
2013-01-05 14:20:00,35.4,31.4,30.06,SSW,202,19.0,19.0,85,0.00,,,0.00,VWS V14.01,2013-01-05 20:20:00,
2013-01-05 14:25:00,35.4,31.4,30.06,SSW,202,16.7,16.7,85,0.00,,,0.00,VWS V14.01,2013-01-05 20:25:00,
2013-01-05 14:30:00,35.2,31.1,30.06,SSW,202,11.4,11.4,85,0.00,,,0.00,VWS V14.01,2013-01-05 20:30:00,
2013-01-05 14:35:00,35.2,31.1,30.06,SSW,202,10.9,10.9,85,0.00,,,0.00,VWS V14.01,2013-01-05 20:35:00,
2013-01-05 14:40:00,34.8,30.8,30.06,SSW,202,11.4,11.4,85,0.00,,,0.00,VWS V14.01,2013-01-05 20:40:00,
2013-01-05 14:45:00,35.2,31.1,30.06,SSW,202,11.1,11.1,85,0.00,,,0.00,VWS V14.01,2013-01-05 20:45:00,
2013-01-05 14:50:00,35.2,31.1,30.06,SSW,202,11.8,11.8,85,0.00,,,0.00,VWS V14.01,2013-01-05 20:50:00,
2013-01-05 14:55:00,35.4,31.4,30.06,SSW,202,7.6,7.6,85,0.00,,,0.00,VWS V14.01,2013-01-05 20:55:00,
2013-01-05 14:58:00,35.4,31.1,30.07,SW,225,16.1,16.1,84,0.00,,,99.99,VWS V14.01,2013-01-05 20:58:00,
2013-01-05 15:00:00,35.4,31.1,30.06,SSW,202,12.7,12.7,84,0.00,,,0.00,VWS V14.01,2013-01-05 21:00:00,
2013-01-05 15:05:00,35.4,31.1,30.06,SSW,202,17.6,17.6,84,0.00,,,0.00,VWS V14.01,2013-01-05 21:05:00,
2013-01-05 15:10:00,35.4,31.1,30.06,SSW,202,20.8,20.8,84,0.00,,,0.00,VWS V14.01,2013-01-05 21:10:00,
2013-01-05 15:15:00,35.4,31.1,30.05,SSW,202,16.5,16.5,84,0.00,,,0.00,VWS V14.01,2013-01-05 21:15:00,
2013-01-05 15:20:00,35.4,31.1,30.05,SSW,202,19.0,19.0,84,0.00,,,0.00,VWS V14.01,2013-01-05 21:20:00,
2013-01-05 15:25:00,35.4,31.1,30.05,SSW,202,16.7,16.7,84,0.00,,,0.00,VWS V14.01,2013-01-05 21:25:00,
2013-01-05 15:30:00,35.4,31.1,30.05,SSW,202,10.2,10.2,84,0.00,,,0.00,VWS V14.01,2013-01-05 21:30:00,
2013-01-05 15:35:00,35.4,31.1,30.05,SSW,202,14.0,14.0,84,0.00,,,0.00,VWS V14.01,2013-01-05 21:35:00,
2013-01-05 15:40:00,35.4,31.1,30.05,SSW,202,16.3,16.3,84,0.00,,,0.00,VWS V14.01,2013-01-05 21:40:00,
2013-01-05 15:45:00,35.2,30.9,30.05,SSW,202,9.6,9.6,84,0.00,,,0.00,VWS V14.01,2013-01-05 21:45:00,
2013-01-05 15:50:00,35.2,30.9,30.04,SW,225,11.6,11.6,84,0.00,,,0.00,VWS V14.01,2013-01-05 21:50:00,
2013-01-05 15:55:00,35.2,31.1,30.04,SSW,202,11.6,11.6,85,0.00,,,0.00,VWS V14.01,2013-01-05 21:55:00,
2013-01-05 15:58:00,35.2,31.2,30.04,South,180,11.4,16.1,85,0.00,,,99.99,VWS V14.01,2013-01-05 21:58:00,
2013-01-05 16:00:00,35.2,31.1,30.04,SSW,202,13.4,13.4,85,0.00,,,0.00,VWS V14.01,2013-01-05 22:00:00,
2013-01-05 16:05:00,35.2,31.1,30.04,South,180,15.4,15.4,85,0.00,,,0.00,VWS V14.01,2013-01-05 22:05:00,
2013-01-05 16:10:00,34.8,30.8,30.04,South,180,10.9,10.9,85,0.00,,,0.00,VWS V14.01,2013-01-05 22:10:00,
2013-01-05 16:15:00,34.7,30.7,30.04,South,180,12.0,12.0,85,0.00,,,0.00,VWS V14.01,2013-01-05 22:15:00,
2013-01-05 16:20:00,34.5,30.5,30.04,SSW,202,10.9,10.9,85,0.00,,,0.00,VWS V14.01,2013-01-05 22:20:00,
2013-01-05 16:25:00,34.5,30.8,30.05,South,180,12.3,12.3,86,0.00,,,0.00,VWS V14.01,2013-01-05 22:25:00,
2013-01-05 16:30:00,34.5,30.8,30.05,SSW,202,9.3,9.3,86,0.00,,,0.00,VWS V14.01,2013-01-05 22:30:00,
2013-01-05 16:35:00,34.3,30.6,30.05,SSE,158,11.8,11.8,86,0.00,,,0.00,VWS V14.01,2013-01-05 22:35:00,
2013-01-05 16:40:00,34.3,30.6,30.04,SSW,202,7.6,7.6,86,0.00,,,0.00,VWS V14.01,2013-01-05 22:40:00,
2013-01-05 16:45:00,34.3,30.6,30.04,SSW,202,17.4,17.4,86,0.00,,,0.00,VWS V14.01,2013-01-05 22:45:00,
2013-01-05 16:50:00,34.3,30.8,30.04,SSW,202,8.0,8.0,87,0.00,,,0.00,VWS V14.01,2013-01-05 22:50:00,
2013-01-05 16:55:00,34.3,30.8,30.04,SSW,202,11.1,11.1,87,0.00,,,0.00,VWS V14.01,2013-01-05 22:55:00,
2013-01-05 16:58:00,34.3,30.9,30.04,SSW,202,12.3,12.3,87,0.00,,,99.99,VWS V14.01,2013-01-05 22:58:00,
2013-01-05 17:00:00,34.3,30.8,30.04,SSW,202,12.9,12.9,87,0.00,,,0.00,VWS V14.01,2013-01-05 23:00:00,
2013-01-05 17:05:00,34.3,30.8,30.04,SW,225,11.8,11.8,87,0.00,,,0.00,VWS V14.01,2013-01-05 23:05:00,
2013-01-05 17:10:00,34.3,30.8,30.04,SSW,202,13.8,13.8,87,0.00,,,0.00,VWS V14.01,2013-01-05 23:10:00,
2013-01-05 17:15:00,34.3,30.8,30.05,SSW,202,14.7,14.7,87,0.00,,,0.00,VWS V14.01,2013-01-05 23:15:00,
2013-01-05 17:20:00,34.3,30.8,30.04,SSW,202,16.1,16.1,87,0.00,,,0.00,VWS V14.01,2013-01-05 23:20:00,
2013-01-05 17:25:00,34.3,30.8,30.04,SSW,202,11.8,11.8,87,0.00,,,0.00,VWS V14.01,2013-01-05 23:25:00,
2013-01-05 17:30:00,34.3,30.8,30.05,SSW,202,17.8,17.8,87,0.00,,,0.00,VWS V14.01,2013-01-05 23:30:00,
2013-01-05 17:35:00,34.3,30.8,30.05,SSW,202,12.0,12.0,87,0.00,,,0.00,VWS V14.01,2013-01-05 23:35:00,
2013-01-05 17:40:00,34.3,30.8,30.05,SSW,202,11.6,11.6,87,0.00,,,0.00,VWS V14.01,2013-01-05 23:40:00,
2013-01-05 17:45:00,34.3,30.8,30.05,SSW,202,10.9,10.9,87,0.00,,,0.00,VWS V14.01,2013-01-05 23:45:00,
2013-01-05 17:50:00,34.3,30.8,30.04,SSW,202,15.8,15.8,87,0.00,,,0.00,VWS V14.01,2013-01-05 23:50:00,
2013-01-05 17:55:00,34.3,30.8,30.04,SSW,202,15.2,15.2,87,0.00,,,0.00,VWS V14.01,2013-01-05 23:55:00,
2013-01-05 17:58:00,34.3,30.9,30.05,SSW,202,7.6,12.3,87,0.00,,,99.99,VWS V14.01,2013-01-05 23:58:00,
2013-01-05 18:00:00,34.3,30.8,30.04,SSW,202,10.0,10.0,87,0.00,,,0.00,VWS V14.01,2013-01-06 00:00:00,
2013-01-05 18:05:00,34.3,30.8,30.04,SSW,202,13.1,13.1,87,0.00,,,0.00,VWS V14.01,2013-01-06 00:05:00,
2013-01-05 18:10:00,34.3,30.8,30.04,SSW,202,11.6,11.6,87,0.00,,,0.00,VWS V14.01,2013-01-06 00:10:00,
2013-01-05 18:15:00,34.3,30.8,30.04,SSW,202,15.4,18.3,87,0.00,,,0.00,VWS V14.01,2013-01-06 00:15:00,
2013-01-05 18:20:00,34.3,30.8,30.04,SSW,202,15.2,15.2,87,0.00,,,0.00,VWS V14.01,2013-01-06 00:20:00,
2013-01-05 18:25:00,34.3,30.8,30.04,SSW,202,16.1,16.1,87,0.00,,,0.00,VWS V14.01,2013-01-06 00:25:00,
2013-01-05 18:30:00,34.3,30.8,30.05,SSW,202,23.4,23.4,87,0.00,,,0.00,VWS V14.01,2013-01-06 00:30:00,
2013-01-05 18:35:00,34.3,30.8,30.04,SSW,202,18.1,18.1,87,0.00,,,0.00,VWS V14.01,2013-01-06 00:35:00,
2013-01-05 18:40:00,34.3,30.8,30.04,SSW,202,19.4,19.4,87,0.00,,,0.00,VWS V14.01,2013-01-06 00:40:00,
2013-01-05 18:45:00,34.3,30.8,30.04,SSW,202,14.7,14.7,87,0.00,,,0.00,VWS V14.01,2013-01-06 00:45:00,
2013-01-05 18:50:00,34.3,30.8,30.04,SSW,202,15.4,15.4,87,0.00,,,0.00,VWS V14.01,2013-01-06 00:50:00,
2013-01-05 18:55:00,34.3,30.8,30.04,SSW,202,19.4,19.4,87,0.00,,,0.00,VWS V14.01,2013-01-06 00:55:00,
2013-01-05 18:58:00,34.3,30.9,30.04,SSW,202,15.7,15.7,87,0.00,,,99.99,VWS V14.01,2013-01-06 00:58:00,
2013-01-05 19:00:00,34.3,30.8,30.04,SSW,202,17.0,17.0,87,0.00,,,0.00,VWS V14.01,2013-01-06 01:00:00,
2013-01-05 19:05:00,34.3,30.8,30.04,SSW,202,17.8,17.8,87,0.00,,,0.00,VWS V14.01,2013-01-06 01:05:00,
2013-01-05 19:10:00,34.3,30.8,30.04,SSW,202,14.3,14.3,87,0.00,,,0.00,VWS V14.01,2013-01-06 01:10:00,
2013-01-05 19:15:00,34.3,30.8,30.03,SSW,202,16.7,16.7,87,0.00,,,0.00,VWS V14.01,2013-01-06 01:15:00,
2013-01-05 19:20:00,34.3,30.8,30.03,SSW,202,14.5,14.5,87,0.00,,,0.00,VWS V14.01,2013-01-06 01:20:00,
2013-01-05 19:25:00,34.3,30.8,30.03,SSW,202,13.6,13.6,87,0.00,,,0.00,VWS V14.01,2013-01-06 01:25:00,
2013-01-05 19:30:00,34.3,30.8,30.03,SSW,202,13.8,13.8,87,0.00,,,0.00,VWS V14.01,2013-01-06 01:30:00,
2013-01-05 19:35:00,34.3,30.8,30.03,SSW,202,16.7,16.7,87,0.00,,,0.00,VWS V14.01,2013-01-06 01:35:00,
2013-01-05 19:40:00,34.3,30.8,30.03,SSW,202,17.6,17.6,87,0.00,,,0.00,VWS V14.01,2013-01-06 01:40:00,
2013-01-05 19:45:00,34.3,30.8,30.03,SSW,202,20.5,20.5,87,0.00,,,0.00,VWS V14.01,2013-01-06 01:45:00,
2013-01-05 19:50:00,34.3,30.8,30.03,SSW,202,17.0,17.0,87,0.00,,,0.00,VWS V14.01,2013-01-06 01:50:00,
2013-01-05 19:54:00,34.3,30.8,30.03,SSW,202,16.3,16.3,87,0.00,,,0.00,VWS V14.01,2013-01-06 01:54:00,
2013-01-05 19:58:00,34.3,30.9,30.03,SSW,202,16.6,16.6,87,0.00,,,99.99,VWS V14.01,2013-01-06 01:58:00,
2013-01-05 19:59:00,34.3,30.8,30.03,SSW,202,18.3,18.3,87,0.00,,,0.00,VWS V14.01,2013-01-06 01:59:00,
2013-01-05 20:04:00,34.3,30.8,30.03,SSW,202,17.6,17.6,87,0.00,,,0.00,VWS V14.01,2013-01-06 02:04:00,
2013-01-05 20:09:00,34.3,30.8,30.03,SSW,202,19.9,19.9,87,0.00,,,0.00,VWS V14.01,2013-01-06 02:09:00,
2013-01-05 20:14:00,34.3,30.8,30.03,SSW,202,17.8,17.8,87,0.00,,,0.00,VWS V14.01,2013-01-06 02:14:00,
2013-01-05 20:19:00,34.3,30.8,30.02,SSW,202,20.8,20.8,87,0.00,,,0.00,VWS V14.01,2013-01-06 02:19:00,
2013-01-05 20:24:00,34.3,30.8,30.03,SSW,202,15.8,15.8,87,0.00,,,0.00,VWS V14.01,2013-01-06 02:24:00,
2013-01-05 20:29:00,34.3,30.8,30.03,SSW,202,15.4,15.4,87,0.00,,,0.00,VWS V14.01,2013-01-06 02:29:00,
2013-01-05 20:34:00,34.3,30.8,30.03,SW,225,18.7,18.7,87,0.00,,,0.00,VWS V14.01,2013-01-06 02:34:00,
2013-01-05 20:39:00,34.3,30.8,30.03,SSW,202,16.3,16.3,87,0.00,,,0.00,VWS V14.01,2013-01-06 02:39:00,
2013-01-05 20:44:00,34.3,30.8,30.03,SW,225,12.0,12.0,87,0.00,,,0.00,VWS V14.01,2013-01-06 02:44:00,
2013-01-05 20:49:00,34.3,30.8,30.02,SSW,202,19.6,19.6,87,0.00,,,0.00,VWS V14.01,2013-01-06 02:49:00,
2013-01-05 20:54:00,34.3,30.8,30.02,SW,225,4.0,4.0,87,0.00,,,0.00,VWS V14.01,2013-01-06 02:54:00,
2013-01-05 20:58:00,34.3,30.9,30.03,SW,225,13.9,16.6,87,0.00,,,99.99,VWS V14.01,2013-01-06 02:58:00,
2013-01-05 20:59:00,34.3,30.8,30.02,SW,225,10.7,10.7,87,0.00,,,0.00,VWS V14.01,2013-01-06 02:59:00,
2013-01-05 21:04:00,34.3,30.8,30.02,SSW,202,14.0,14.0,87,0.00,,,0.00,VWS V14.01,2013-01-06 03:04:00,
2013-01-05 21:09:00,34.3,30.8,30.02,SSW,202,17.6,17.6,87,0.00,,,0.00,VWS V14.01,2013-01-06 03:09:00,
2013-01-05 21:14:00,34.3,30.8,30.02,SSW,202,19.9,19.9,87,0.00,,,0.00,VWS V14.01,2013-01-06 03:14:00,
2013-01-05 21:19:00,34.3,30.8,30.02,SW,225,17.8,17.8,87,0.00,,,0.00,VWS V14.01,2013-01-06 03:19:00,
2013-01-05 21:24:00,34.3,30.8,30.02,SSW,202,14.0,14.0,87,0.00,,,0.00,VWS V14.01,2013-01-06 03:24:00,
2013-01-05 21:29:00,34.3,30.8,30.02,SSW,202,6.0,6.0,87,0.00,,,0.00,VWS V14.01,2013-01-06 03:29:00,
2013-01-05 21:34:00,34.3,30.8,30.02,SSW,202,16.7,16.7,87,0.00,,,0.00,VWS V14.01,2013-01-06 03:34:00,
2013-01-05 21:39:00,34.3,30.8,30.01,SSW,202,16.5,16.5,87,0.00,,,0.00,VWS V14.01,2013-01-06 03:39:00,
2013-01-05 21:44:00,34.3,30.8,30.01,SW,225,10.0,10.0,87,0.00,,,0.00,VWS V14.01,2013-01-06 03:44:00,
2013-01-05 21:49:00,34.3,30.8,30.01,SSW,202,13.8,13.8,87,0.00,,,0.00,VWS V14.01,2013-01-06 03:49:00,
2013-01-05 21:54:00,34.3,30.8,30.01,SSW,202,12.5,12.5,87,0.00,,,0.00,VWS V14.01,2013-01-06 03:54:00,
2013-01-05 21:58:00,34.3,30.9,30.01,SSW,202,19.9,19.9,87,0.00,,,99.99,VWS V14.01,2013-01-06 03:58:00,
2013-01-05 21:59:00,34.3,30.8,30.02,SSW,202,19.9,19.9,87,0.00,,,0.00,VWS V14.01,2013-01-06 03:59:00,
2013-01-05 22:04:00,34.3,30.8,30.01,SSW,202,14.5,14.5,87,0.00,,,0.00,VWS V14.01,2013-01-06 04:04:00,
2013-01-05 22:09:00,34.3,30.8,30.01,SW,225,12.3,12.3,87,0.00,,,0.00,VWS V14.01,2013-01-06 04:09:00,
2013-01-05 22:14:00,34.3,30.8,30.01,SW,225,8.2,8.2,87,0.00,,,0.00,VWS V14.01,2013-01-06 04:14:00,
2013-01-05 22:19:00,34.3,30.8,30.01,SSW,202,16.3,16.3,87,0.00,,,0.00,VWS V14.01,2013-01-06 04:19:00,
2013-01-05 22:24:00,34.3,30.8,30.01,SSW,202,10.2,10.2,87,0.00,,,0.00,VWS V14.01,2013-01-06 04:24:00,
2013-01-05 22:29:00,34.3,30.8,30.01,SSW,202,10.0,10.0,87,0.00,,,0.00,VWS V14.01,2013-01-06 04:29:00,
2013-01-05 22:34:00,34.3,30.8,30.01,SSW,202,10.7,10.7,87,0.00,,,0.00,VWS V14.01,2013-01-06 04:34:00,
2013-01-05 22:39:00,34.3,30.8,30.02,SSW,202,8.9,8.9,87,0.00,,,0.00,VWS V14.01,2013-01-06 04:39:00,
2013-01-05 22:44:00,34.3,30.8,30.02,West,270,3.5,3.5,87,0.00,,,0.00,VWS V14.01,2013-01-06 04:44:00,
2013-01-05 22:49:00,33.6,29.6,30.01,WNW,292,3.8,3.8,85,0.00,,,0.00,VWS V14.01,2013-01-06 04:49:00,
2013-01-05 22:54:00,32.9,28.6,30.02,West,270,8.0,8.0,84,0.00,,,0.00,VWS V14.01,2013-01-06 04:54:00,
2013-01-05 22:58:00,32.2,27.6,30.02,WSW,248,6.9,19.9,83,0.00,,,99.99,VWS V14.01,2013-01-06 04:58:00,
2013-01-05 22:59:00,32.1,27.5,30.02,WSW,248,6.9,6.9,83,0.00,,,0.00,VWS V14.01,2013-01-06 04:59:00,
2013-01-05 23:00:00,32.1,27.5,30.02,WSW,248,6.9,6.9,83,0.00,,,0.00,VWS V14.01,2013-01-06 05:00:00,
2013-01-05 23:01:00,31.8,27.2,30.01,West,270,18.3,18.3,83,0.00,,,0.00,VWS V14.01,2013-01-06 05:01:00,
2013-01-05 23:02:00,31.8,27.2,30.01,West,270,18.3,18.3,83,0.00,,,0.00,VWS V14.01,2013-01-06 05:02:00,
2013-01-05 23:05:00,31.2,26.4,30.02,WNW,292,5.8,5.8,82,0.00,,,0.00,VWS V14.01,2013-01-06 05:05:00,
2013-01-05 23:10:00,30.7,25.6,30.02,WNW,292,7.1,7.1,81,0.00,,,0.00,VWS V14.01,2013-01-06 05:10:00,
2013-01-05 23:15:00,30.2,25.1,30.02,West,270,5.3,5.3,81,0.00,,,0.00,VWS V14.01,2013-01-06 05:15:00,
2013-01-05 23:20:00,29.8,24.7,30.02,West,270,8.5,8.5,81,0.00,,,0.00,VWS V14.01,2013-01-06 05:20:00,
2013-01-05 23:25:00,29.4,24.6,30.02,SSW,202,5.5,5.5,82,0.00,,,0.00,VWS V14.01,2013-01-06 05:25:00,
2013-01-05 23:30:00,28.7,24.2,30.02,WNW,292,3.3,3.3,83,0.00,,,0.00,VWS V14.01,2013-01-06 05:30:00,
2013-01-05 23:35:00,28.2,23.7,30.02,WSW,248,5.5,5.5,83,0.00,,,0.00,VWS V14.01,2013-01-06 05:35:00,
2013-01-05 23:40:00,27.6,23.1,30.02,West,270,3.5,3.5,83,0.00,,,0.00,VWS V14.01,2013-01-06 05:40:00,
2013-01-05 23:45:00,27.5,23.0,30.03,West,270,13.1,13.1,83,0.00,,,0.00,VWS V14.01,2013-01-06 05:45:00,
2013-01-05 23:50:00,27.1,22.6,30.03,WNW,292,5.1,5.1,83,0.00,,,0.00,VWS V14.01,2013-01-06 05:50:00,
2013-01-05 23:55:00,26.7,22.2,30.03,West,270,4.2,4.2,83,0.00,,,0.00,VWS V14.01,2013-01-06 05:55:00,
2013-01-05 23:58:00,26.4,22.0,30.04,WNW,292,6.9,6.9,83,0.00,,,99.99,VWS V14.01,2013-01-06 05:58:00,